ADDS METAR Data INFO
IDs: Format: Raw Decoded Include TAF

Data at: 2029 UTC 20 Jul 2018

KSYN 202015Z AUTO 32011G15KT 10SM SCT026 BKN034 BKN040 25/19 A2981 RMK AO2 T02520191
KSYN 201955Z AUTO 31015G18KT 10SM SCT024 BKN029 BKN036 25/19 A2981 RMK AO2 T02460190
KSYN 201935Z AUTO 31012G15KT 10SM SCT022 SCT030 SCT055 25/20 A2981 RMK AO2 T02480198
KSYN 201915Z AUTO 32012G16KT 10SM SCT021 SCT030 BKN048 23/19 A2981 RMK AO2 T02330186
KSYN 201855Z AUTO 32011G15KT 10SM SCT021 SCT031 BKN037 24/19 A2982 RMK AO2 T02360189
KSYN 201835Z AUTO 33011G15KT 10SM SCT027 SCT032 SCT040 23/19 A2982 RMK AO2 T02290189
KSYN 201815Z AUTO 33010KT 10SM SCT018 SCT026 SCT120 22/19 A2982 RMK AO2 T02240190
KSYN 201755Z AUTO 32013KT 10SM SCT018 SCT031 SCT120 22/19 A2982 RMK AO2 60002 T02200189 10220 20185
KSYN 201736Z AUTO 33010G14KT 10SM SCT014 SCT031 BKN120 22/19 A2982 RMK AO2 T02150187
KSYN 201715Z AUTO 33013KT 10SM SCT014 SCT022 BKN120 21/19 A2982 RMK AO2 T02090185
KSYN 201655Z AUTO 33011KT 10SM -RA SCT014 BKN020 BKN028 21/19 A2982 RMK AO2 T02060185
KSYN 201635Z AUTO 33011G17KT 10SM -RA SCT011 BKN021 OVC028 20/18 A2982 RMK AO2 T02030182
KSYN 201615Z AUTO 33012G15KT 10SM -DZ SCT009 BKN013 OVC023 20/18 A2982 RMK AO2 T02020182
KSYN 201555Z AUTO 32010G15KT 10SM -RA BKN013 OVC022 20/18 A2982 RMK AO2 P0001 T01970180
KSYN 201535Z AUTO 33009KT 10SM -RA BKN011 BKN017 OVC049 19/18 A2981 RMK AO2 P0001 T01930176
KSYN 201515Z AUTO 33011KT 7SM RA SCT009 BKN035 OVC049 20/18 A2981 RMK AO2 T01950177
KSYN 201455Z AUTO 34012KT 10SM -RA SCT012 BKN035 OVC049 20/18 A2980 RMK AO2 60001 T02000178
KSYN 201435Z AUTO 34010G16KT 10SM SCT012 BKN018 OVC034 20/18 A2980 RMK AO2 T02000176
KSYN 201415Z AUTO 34011G16KT 10SM BKN011 OVC016 20/18 A2980 RMK AO2 T01950176
KSYN 201355Z AUTO 34010KT 10SM -RA BKN010 OVC014 19/18 A2979 RMK AO2 P0001 T01910175
KSYN 201335Z AUTO 34009KT 10SM BKN010 OVC013 19/18 A2978 RMK AO2 P0001 T01910176
KSYN 201315Z AUTO 34009KT 10SM -RA BKN007 OVC012 19/18 A2977 RMK AO2 P0001 T01900177
KSYN 201255Z AUTO 34008KT 10SM -RA SCT007 OVC012 19/18 A2976 RMK AO2 T01900177
KSYN 201235Z AUTO 35006KT 7SM -DZ BKN005 OVC012 19/18 A2976 RMK AO2 T01860176
KSYN 201215Z AUTO 33008KT 1 1/2SM -RA OVC007 19/17 A2975 RMK AO2 T01850173
KSYN 201155Z AUTO 33006KT 5SM BR BKN007 OVC015 19/18 A2975 RMK AO2 70026 T01850175 10186 20183
KSYN 201135Z AUTO 34005KT 4SM BR SCT007 OVC013 19/18 A2974 RMK AO2 T01850175
KSYN 201115Z AUTO 34008KT 4SM BR OVC011 19/18 A2973 RMK AO2 T01850175
KSYN 201055Z AUTO 33006KT 5SM BR SCT005 OVC011 19/18 A2973 RMK AO2 T01850175
KSYN 201035Z AUTO 35008KT 3SM BR OVC007 18/17 A2972 RMK AO2 T01840174
KSYN 201015Z AUTO 35008KT 3SM BR OVC007 18/17 A2971 RMK AO2 T01830173
KSYN 200955Z AUTO 35007KT 4SM BR OVC005 19/18 A2970 RMK AO2 T01850175
KSYN 200935Z AUTO 34007KT 3SM BR OVC005 19/18 A2970 RMK AO2 T01850175
KSYN 200915Z AUTO 35005KT 5SM BR OVC005 19/18 A2970 RMK AO2 T01850175
KSYN 200855Z AUTO 34008KT 3SM BR OVC005 18/17 A2969 RMK AO2 T01830173
KSYN 200835Z AUTO 34006KT 4SM DZ OVC005 18/17 A2968 RMK AO2 T01830172
KSYN 200815Z AUTO 35007KT 7SM OVC007 19/17 A2968 RMK AO2 T01850171
KSYN 200755Z AUTO 35007KT 10SM OVC007 19/17 A2967 RMK AO2 T01850171
KSYN 200735Z AUTO 35007KT 10SM OVC007 19/17 A2967 RMK AO2 T01850170
KSYN 200715Z AUTO 35006KT 10SM OVC007 19/17 A2967 RMK AO2 T01850170
KSYN 200655Z AUTO 01005KT 10SM OVC007 19/17 A2966 RMK AO2 T01850171
KSYN 200635Z AUTO 01005KT 10SM OVC007 19/17 A2966 RMK AO2 T01850170
KSYN 200615Z AUTO 03005KT 10SM OVC007 19/17 A2966 RMK AO2 T01850170
KSYN 200555Z AUTO 04005KT 10SM BKN007 OVC012 19/17 A2966 RMK AO2 T01850170 10196 20185 402180185
KSYN 200535Z AUTO 03005KT 10SM OVC007 19/17 A2966 RMK AO2 T01850170
KSYN 200515Z AUTO 04003KT 10SM OVC009 19/17 A2966 RMK AO2 T01860170
KSYN 200455Z AUTO 05006KT 10SM OVC009 19/17 A2966 RMK AO2 T01860170
KSYN 200435Z AUTO 04004KT 10SM OVC009 19/17 A2966 RMK AO2 T01870170
KSYN 200415Z AUTO 06006KT 10SM OVC009 19/17 A2966 RMK AO2 T01870169
KSYN 200355Z AUTO 06005KT 10SM OVC009 19/17 A2966 RMK AO2 T01870168
KSYN 200335Z AUTO 07005KT 10SM OVC011 19/17 A2966 RMK AO2 T01870167
KSYN 200315Z AUTO 08005KT 10SM OVC011 19/17 A2966 RMK AO2 T01870166
KSYN 200255Z AUTO 10004KT 10SM OVC013 19/17 A2966 RMK AO2 T01880168
KSYN 200235Z AUTO 09005KT 10SM OVC013 19/17 A2966 RMK AO2 T01880167
KSYN 200215Z AUTO 09008KT 10SM OVC015 19/17 A2966 RMK AO2 T01890166
KSYN 200155Z AUTO 09009KT 10SM SCT015 SCT040 BKN120 19/16 A2965 RMK AO2 T01880164
KSYN 200135Z AUTO 11011G16KT 10SM SCT021 SCT030 BKN044 19/16 A2965 RMK AO2 T01920163
KSYN 200115Z AUTO 11009KT 10SM OVC021 19/17 A2966 RMK AO2 T01930165
KSYN 200055Z AUTO 11007KT 10SM BKN021 BKN029 OVC042 20/17 A2966 RMK AO2 T01950165
KSYN 200035Z AUTO 11008KT 10SM BKN029 BKN035 OVC042 20/17 A2966 RMK AO2 T01950165
KSYN 200015Z AUTO 11009KT 10SM BKN027 OVC031 20/17 A2967 RMK AO2 T01960167
KSYN 192355Z AUTO 12006G14KT 10SM OVC027 20/17 A2967 RMK AO2 T01960166 10216 20195
KSYN 192335Z AUTO 13010G16KT 10SM OVC025 20/17 A2968 RMK AO2 T01960165
KSYN 192315Z AUTO 12010G16KT 10SM OVC031 20/17 A2968 RMK AO2 T01960165
KSYN 192255Z AUTO 13011G17KT 10SM OVC031 20/16 A2969 RMK AO2 T02000162
KSYN 192235Z AUTO 13010G17KT 10SM OVC029 20/17 A2970 RMK AO2 T02000165
KSYN 192215Z AUTO 14007KT 10SM OVC025 20/17 A2970 RMK AO2 T02020167
KSYN 192155Z AUTO 14006KT 10SM -RA OVC023 21/17 A2972 RMK AO2 T02060172
KSYN 192135Z AUTO 14005KT 10SM OVC023 20/17 A2971 RMK AO2 T02040170
KSYN 192115Z AUTO 11009G20KT 10SM OVC025 20/17 A2970 RMK AO2 T02020172
KSYN 192055Z AUTO 13009G16KT 10SM -RA OVC025 21/17 A2971 RMK AO2 T02050170
KSYN 192035Z AUTO 14012G18KT 10SM OVC025 21/17 A2972 RMK AO2 T02130165
KSYN 192015Z AUTO 13009G18KT 10SM SCT017 OVC025 21/17 A2973 RMK AO2 LTG DSNT SW T02100167
KSYN 191955Z AUTO 14011G20KT 10SM SCT015 OVC025 21/17 A2974 RMK AO2 T02120173
KSYN 191935Z AUTO 14016G26KT 10SM SCT015 BKN025 OVC120 21/17 A2974 RMK AO2 LTG DSNT S T02100174
KSYN 191915Z AUTO 14013G20KT 10SM SCT013 SCT026 BKN120 21/18 A2975 RMK AO2 LTG DSNT S T02050175
KSYN 191855Z AUTO 14014G20KT 10SM SCT013 BKN110 20/18 A2975 RMK AO2 LTG DSNT W T02010177
KSYN 191835Z AUTO 13014G21KT 10SM SCT011 BKN110 20/18 A2975 RMK AO2 LTG DSNT S T02000180
KSYN 191815Z AUTO 13010G15KT 10SM -RA SCT011 BKN024 BKN035 20/19 A2975 RMK AO2 T02010186
KSYN 191755Z AUTO 13013G18KT 4SM RA SCT011 SCT021 OVC031 20/19 A2977 RMK AO2 LTG DSNT SW P0018 60026 T02010185 10218 20200
KSYN 191735Z AUTO 14007KT 3SM RA SCT014 BKN021 OVC030 20/18 A2979 RMK AO2 P0011 T02000184
KSYN 191715Z AUTO 16009KT 5SM RA BKN016 OVC021 20/19 A2981 RMK AO2 LTG DSNT S P0003 T02030185
KSYN 191655Z AUTO 16007KT 10SM -RA OVC014 20/18 A2981 RMK AO2 P0001 T02030184
KSYN 191635Z AUTO 16007KT 10SM RA BKN014 OVC110 20/18 A2982 RMK AO2 T02030181
KSYN 191615Z AUTO 16008G14KT 10SM SCT014 BKN110 20/18 A2981 RMK AO2 T02020180
KSYN 191555Z AUTO 14012G16KT 10SM BKN012 BKN023 BKN040 20/18 A2979 RMK AO2 P0004 T02000180
KSYN 191535Z AUTO 16008G15KT 10SM -RA SCT013 BKN026 OVC042 20/18 A2981 RMK AO2 P0003 T02000182
KSYN 191515Z AUTO 14013G17KT 7SM RA SCT033 BKN041 OVC047 20/18 A2980 RMK AO2 P0002 T02000182
KSYN 191455Z AUTO 15010G15KT 10SM RA SCT018 BKN032 OVC055 20/18 A2983 RMK AO2 P0003 60003 T02010182
KSYN 191435Z AUTO 16009KT 10SM -RA SCT015 BKN032 OVC075 20/18 A2984 RMK AO2 LTG DSNT SW P0001 T02040184
KSYN 191415Z AUTO 17007KT 10SM -RA SCT015 BKN027 OVC075 21/19 A2984 RMK AO2 T02060185
KSYN 191355Z AUTO 16006KT 10SM -RA SCT015 OVC075 21/18 A2984 RMK AO2 T02050182
KSYN 191335Z AUTO 17009G15KT 10SM -RA SCT060 OVC075 21/18 A2985 RMK AO2 LTG DSNT S T02100180
KSYN 191315Z AUTO 15011G15KT 10SM SCT060 BKN075 OVC090 21/18 A2984 RMK AO2 LTG DSNT S THRU NW T02130180
KSYN 191255Z AUTO 15009G15KT 130V200 10SM OVC080 22/18 A2984 RMK AO2 LTG DSNT SW T02150181
KSYN 191235Z AUTO 15011G16KT 10SM BKN080 22/18 A2983 RMK AO2 LTG DSNT S THRU W T02170180
KSYN 191215Z AUTO 15012G15KT 10SM SCT060 BKN080 21/18 A2984 RMK AO2 LTG DSNT S THRU W T02120181
KSYN 191155Z AUTO 14008KT 10SM BKN060 BKN070 BKN080 21/18 A2985 RMK AO2 LTG DSNT SW AND W T02070180 10207 20197
KSYN 191135Z AUTO 15009KT 10SM OVC060 21/18 A2986 RMK AO2 LTG DSNT SW T02050180
KSYN 191115Z AUTO 14008KT 10SM BKN060 BKN085 20/18 A2986 RMK AO2 LTG DSNT S THRU W T02020179
KSYN 191055Z AUTO 15007KT 10SM BKN060 BKN075 20/18 A2987 RMK AO2 LTG DSNT S T02020178
KSYN 191035Z AUTO 15006KT 10SM SCT060 SCT070 20/18 A2988 RMK AO2 LTG DSNT S AND SW T02000177
KSYN 191015Z AUTO 15007KT 10SM CLR 20/18 A2988 RMK AO2 T01980176
KSYN 190955Z AUTO 16007KT 10SM CLR 20/18 A2989 RMK AO2 T01970175
KSYN 190935Z AUTO 16006KT 10SM CLR 20/18 A2989 RMK AO2 LTG DSNT SW T01980175
KSYN 190915Z AUTO 16007KT 10SM CLR 20/18 A2989 RMK AO2 LTG DSNT SW T02020175
KSYN 190855Z AUTO 16006KT 10SM CLR 20/18 A2990 RMK AO2 T02040175
KSYN 190835Z AUTO 16007KT 10SM CLR 20/17 A2990 RMK AO2 T02020174